This is the latest recevied weather packets stored in our database for station/object LA3SP-1. If no packets are shown the sender has not sent any weather packets the latest 10 day(s).
| Time | Temp. | Humidity | Pressure | Rain* | Wind** | Luminosity | Snow |
|---|---|---|---|---|---|---|---|
| 1777474300 | 10° C | 55% | 1024 hPa | 0 mm | - | - | - |
| 1777473698 | 9.44° C | 55% | 1023.9 hPa | 0 mm | - | - | - |
| 1777473097 | 9.44° C | 54% | 1024.2 hPa | 0 mm | - | - | - |
| 1777472496 | 10° C | 54% | 1024 hPa | 0 mm | - | - | - |
| 1777471894 | 10° C | 54% | 1023.9 hPa | 0 mm | - | - | - |
| 1777471293 | 10.56° C | 52% | 1023.7 hPa | 0 mm | - | - | - |
| 1777470090 | 12.78° C | 47% | 1023.8 hPa | 0 mm | - | - | - |
| 1777469489 | 12.78° C | 47% | 1023.9 hPa | 0 mm | - | - | - |
| 1777468887 | 12.78° C | 50% | 1023.9 hPa | 0 mm | - | - | - |
| 1777468286 | 12.22° C | 50% | 1023.8 hPa | 0 mm | - | - | - |
| 1777467684 | 11.67° C | 51% | 1023.8 hPa | 0 mm | - | - | - |
| 1777467083 | 12.78° C | 50% | 1023.7 hPa | 0 mm | - | - | - |
| 1777466481 | 12.78° C | 51% | 1023.6 hPa | 0 mm | - | - | - |
| 1777465279 | 11.11° C | 52% | 1023.6 hPa | 0 mm | - | - | - |
| 1777464677 | 11.11° C | 52% | 1023.6 hPa | 0 mm | - | - | - |
| 1777464076 | 11.11° C | 52% | 1023.6 hPa | 0 mm | - | - | - |
| 1777463475 | 11.67° C | 51% | 1023.6 hPa | 0 mm | - | - | - |
| 1777462873 | 12.22° C | 50% | 1023.6 hPa | 0 mm | - | - | - |
| 1777461671 | 12.78° C | 49% | 1023.4 hPa | 0 mm | - | - | - |
| 1777461069 | 12.78° C | 49% | 1023.4 hPa | 0 mm | - | - | - |
| 1777460468 | 12.78° C | 49% | 1023.4 hPa | 0 mm | - | - | - |
| 1777459866 | 12.78° C | 50% | 1023.2 hPa | 0 mm | - | - | - |
| 1777459265 | 12.22° C | 50% | 1023.4 hPa | 0 mm | - | - | - |
| 1777458663 | 12.22° C | 50% | 1023.4 hPa | 0 mm | - | - | - |
| 1777458062 | 12.78° C | 50% | 1023.4 hPa | 0 mm | - | - | - |
* Rain latest 24 hours (hover to see other rain measurements)
** Current wind speed in m/s (hover to see current wind gust speed)